sensor_id;sensor_type;location;lat;lon;timestamp;temperature;humidity
10344;DHT22;5217;43.960;10.954;2022-08-21T00:00:52;26.40;99.90
10344;DHT22;5217;43.960;10.954;2022-08-21T00:03:20;26.30;99.90
10344;DHT22;5217;43.960;10.954;2022-08-21T00:05:49;26.30;99.90
10344;DHT22;5217;43.960;10.954;2022-08-21T00:08:19;26.30;99.90
10344;DHT22;5217;43.960;10.954;2022-08-21T00:10:48;26.30;99.90
10344;DHT22;5217;43.960;10.954;2022-08-21T00:13:17;26.30;99.90
10344;DHT22;5217;43.960;10.954;2022-08-21T00:15:49;26.30;99.90
10344;DHT22;5217;43.960;10.954;2022-08-21T00:18:18;26.30;99.90
10344;DHT22;5217;43.960;10.954;2022-08-21T00:20:47;26.30;99.90
10344;DHT22;5217;43.960;10.954;2022-08-21T00:23:16;26.30;99.90
10344;DHT22;5217;43.960;10.954;2022-08-21T00:25:44;26.20;99.90
10344;DHT22;5217;43.960;10.954;2022-08-21T00:28:13;26.20;99.90
10344;DHT22;5217;43.960;10.954;2022-08-21T00:30:42;26.20;99.90
10344;DHT22;5217;43.960;10.954;2022-08-21T00:33:13;26.20;99.90
10344;DHT22;5217;43.960;10.954;2022-08-21T00:35:43;26.20;99.90
10344;DHT22;5217;43.960;10.954;2022-08-21T00:38:11;26.20;99.90
10344;DHT22;5217;43.960;10.954;2022-08-21T00:40:43;26.20;99.90
10344;DHT22;5217;43.960;10.954;2022-08-21T00:43:14;26.20;99.90
10344;DHT22;5217;43.960;10.954;2022-08-21T00:45:43;26.20;99.90
10344;DHT22;5217;43.960;10.954;2022-08-21T00:48:13;26.10;99.90
10344;DHT22;5217;43.960;10.954;2022-08-21T00:50:46;26.10;99.90
10344;DHT22;5217;43.960;10.954;2022-08-21T00:53:17;26.10;99.90
10344;DHT22;5217;43.960;10.954;2022-08-21T00:55:45;26.10;99.90
10344;DHT22;5217;43.960;10.954;2022-08-21T00:58:16;26.10;99.90
10344;DHT22;5217;43.960;10.954;2022-08-21T01:00:47;26.10;99.90
10344;DHT22;5217;43.960;10.954;2022-08-21T01:03:20;26.10;99.90
10344;DHT22;5217;43.960;10.954;2022-08-21T01:05:50;26.10;99.90
10344;DHT22;5217;43.960;10.954;2022-08-21T01:08:19;26.00;99.90
10344;DHT22;5217;43.960;10.954;2022-08-21T01:10:49;26.00;99.90
10344;DHT22;5217;43.960;10.954;2022-08-21T01:13:21;26.00;99.90
10344;DHT22;5217;43.960;10.954;2022-08-21T01:15:55;26.00;99.90
10344;DHT22;5217;43.960;10.954;2022-08-21T01:18:26;26.00;99.90
10344;DHT22;5217;43.960;10.954;2022-08-21T01:21:05;26.00;99.90
10344;DHT22;5217;43.960;10.954;2022-08-21T01:23:41;26.00;99.90
10344;DHT22;5217;43.960;10.954;2022-08-21T01:26:11;26.00;99.90
10344;DHT22;5217;43.960;10.954;2022-08-21T01:28:44;25.90;99.90
10344;DHT22;5217;43.960;10.954;2022-08-21T01:31:15;25.90;99.90
10344;DHT22;5217;43.960;10.954;2022-08-21T01:33:52;25.90;99.90
10344;DHT22;5217;43.960;10.954;2022-08-21T01:36:22;25.90;99.90
10344;DHT22;5217;43.960;10.954;2022-08-21T01:38:50;25.90;99.90
10344;DHT22;5217;43.960;10.954;2022-08-21T01:41:19;25.90;99.90
10344;DHT22;5217;43.960;10.954;2022-08-21T01:43:48;25.90;99.90
10344;DHT22;5217;43.960;10.954;2022-08-21T01:46:16;25.90;99.90
10344;DHT22;5217;43.960;10.954;2022-08-21T01:48:45;25.80;99.90
10344;DHT22;5217;43.960;10.954;2022-08-21T01:51:13;25.80;99.90
10344;DHT22;5217;43.960;10.954;2022-08-21T01:53:43;25.80;99.90
10344;DHT22;5217;43.960;10.954;2022-08-21T01:56:14;25.80;99.90
10344;DHT22;5217;43.960;10.954;2022-08-21T01:58:45;25.80;99.90
10344;DHT22;5217;43.960;10.954;2022-08-21T02:01:15;25.80;99.90
10344;DHT22;5217;43.960;10.954;2022-08-21T02:03:44;25.80;99.90
10344;DHT22;5217;43.960;10.954;2022-08-21T02:06:14;25.80;99.90
10344;DHT22;5217;43.960;10.954;2022-08-21T02:08:47;25.70;99.90
10344;DHT22;5217;43.960;10.954;2022-08-21T02:11:17;25.70;99.90
10344;DHT22;5217;43.960;10.954;2022-08-21T02:13:46;25.80;99.90
10344;DHT22;5217;43.960;10.954;2022-08-21T02:16:14;25.80;99.90
10344;DHT22;5217;43.960;10.954;2022-08-21T02:18:45;25.70;99.90
10344;DHT22;5217;43.960;10.954;2022-08-21T02:21:14;25.80;99.90
10344;DHT22;5217;43.960;10.954;2022-08-21T02:23:43;25.70;99.90
10344;DHT22;5217;43.960;10.954;2022-08-21T02:26:13;25.80;99.90
10344;DHT22;5217;43.960;10.954;2022-08-21T02:28:42;25.70;99.90
10344;DHT22;5217;43.960;10.954;2022-08-21T02:31:11;25.70;99.90
10344;DHT22;5217;43.960;10.954;2022-08-21T02:33:40;25.70;99.90
10344;DHT22;5217;43.960;10.954;2022-08-21T02:36:10;25.70;99.90
10344;DHT22;5217;43.960;10.954;2022-08-21T02:38:40;25.60;99.90
10344;DHT22;5217;43.960;10.954;2022-08-21T02:41:11;25.60;99.90
10344;DHT22;5217;43.960;10.954;2022-08-21T02:43:42;25.70;99.90
10344;DHT22;5217;43.960;10.954;2022-08-21T02:46:12;25.60;99.90
10344;DHT22;5217;43.960;10.954;2022-08-21T02:48:40;25.60;99.90
10344;DHT22;5217;43.960;10.954;2022-08-21T02:51:11;25.60;99.90
10344;DHT22;5217;43.960;10.954;2022-08-21T02:53:40;25.60;99.90
10344;DHT22;5217;43.960;10.954;2022-08-21T02:56:11;25.50;99.90
10344;DHT22;5217;43.960;10.954;2022-08-21T02:58:45;25.60;99.90
10344;DHT22;5217;43.960;10.954;2022-08-21T03:01:14;25.50;99.90
10344;DHT22;5217;43.960;10.954;2022-08-21T03:03:44;25.60;99.90
10344;DHT22;5217;43.960;10.954;2022-08-21T03:06:15;25.50;99.90
10344;DHT22;5217;43.960;10.954;2022-08-21T03:08:44;25.50;99.90
10344;DHT22;5217;43.960;10.954;2022-08-21T03:11:13;25.50;99.90
10344;DHT22;5217;43.960;10.954;2022-08-21T03:13:44;25.50;99.90
10344;DHT22;5217;43.960;10.954;2022-08-21T03:16:12;25.50;99.90
10344;DHT22;5217;43.960;10.954;2022-08-21T03:18:41;25.50;99.90
10344;DHT22;5217;43.960;10.954;2022-08-21T03:21:10;25.50;99.90
10344;DHT22;5217;43.960;10.954;2022-08-21T03:23:40;25.50;99.90
10344;DHT22;5217;43.960;10.954;2022-08-21T03:26:10;25.50;99.90
10344;DHT22;5217;43.960;10.954;2022-08-21T03:28:38;25.50;99.90
10344;DHT22;5217;43.960;10.954;2022-08-21T03:31:08;25.50;99.90
10344;DHT22;5217;43.960;10.954;2022-08-21T03:33:36;25.50;99.90
10344;DHT22;5217;43.960;10.954;2022-08-21T03:36:07;25.50;99.90
10344;DHT22;5217;43.960;10.954;2022-08-21T03:38:37;25.50;99.90
10344;DHT22;5217;43.960;10.954;2022-08-21T03:41:06;25.50;99.90
10344;DHT22;5217;43.960;10.954;2022-08-21T03:43:36;25.50;99.90
10344;DHT22;5217;43.960;10.954;2022-08-21T03:46:07;25.50;99.90
10344;DHT22;5217;43.960;10.954;2022-08-21T03:48:36;25.50;99.90
10344;DHT22;5217;43.960;10.954;2022-08-21T03:51:05;25.50;99.90
10344;DHT22;5217;43.960;10.954;2022-08-21T03:53:34;25.50;99.90
10344;DHT22;5217;43.960;10.954;2022-08-21T03:56:04;25.50;99.90
10344;DHT22;5217;43.960;10.954;2022-08-21T03:58:32;25.50;99.90
10344;DHT22;5217;43.960;10.954;2022-08-21T04:01:02;25.50;99.90
10344;DHT22;5217;43.960;10.954;2022-08-21T04:03:35;25.40;99.90
10344;DHT22;5217;43.960;10.954;2022-08-21T04:06:04;25.40;99.90
10344;DHT22;5217;43.960;10.954;2022-08-21T04:08:33;25.40;99.90
10344;DHT22;5217;43.960;10.954;2022-08-21T04:11:02;25.40;99.90
10344;DHT22;5217;43.960;10.954;2022-08-21T04:13:30;25.40;99.90
10344;DHT22;5217;43.960;10.954;2022-08-21T04:15:59;25.40;99.90
10344;DHT22;5217;43.960;10.954;2022-08-21T04:18:27;25.40;99.90
10344;DHT22;5217;43.960;10.954;2022-08-21T04:20:58;25.30;99.90
10344;DHT22;5217;43.960;10.954;2022-08-21T04:23:28;25.30;99.90
10344;DHT22;5217;43.960;10.954;2022-08-21T04:25:56;25.40;99.90
10344;DHT22;5217;43.960;10.954;2022-08-21T04:28:26;25.30;99.90
10344;DHT22;5217;43.960;10.954;2022-08-21T04:30:57;25.30;99.90
10344;DHT22;5217;43.960;10.954;2022-08-21T04:33:26;25.30;99.90
10344;DHT22;5217;43.960;10.954;2022-08-21T04:35:54;25.30;99.90
10344;DHT22;5217;43.960;10.954;2022-08-21T04:38:24;25.30;99.90
10344;DHT22;5217;43.960;10.954;2022-08-21T04:41:02;25.30;99.90
10344;DHT22;5217;43.960;10.954;2022-08-21T04:43:31;25.30;99.90
10344;DHT22;5217;43.960;10.954;2022-08-21T04:46:00;25.30;99.90
10344;DHT22;5217;43.960;10.954;2022-08-21T04:48:28;25.30;99.90
10344;DHT22;5217;43.960;10.954;2022-08-21T04:51:01;25.30;99.90
10344;DHT22;5217;43.960;10.954;2022-08-21T04:53:35;25.30;99.90
10344;DHT22;5217;43.960;10.954;2022-08-21T04:56:08;25.20;99.90
10344;DHT22;5217;43.960;10.954;2022-08-21T04:58:39;25.20;99.90
10344;DHT22;5217;43.960;10.954;2022-08-21T05:01:19;25.20;99.90
10344;DHT22;5217;43.960;10.954;2022-08-21T05:03:49;25.20;99.90
10344;DHT22;5217;43.960;10.954;2022-08-21T05:06:19;25.30;99.90
10344;DHT22;5217;43.960;10.954;2022-08-21T05:08:51;25.30;99.90
10344;DHT22;5217;43.960;10.954;2022-08-21T05:11:28;25.30;99.90
10344;DHT22;5217;43.960;10.954;2022-08-21T05:13:57;25.30;99.90
10344;DHT22;5217;43.960;10.954;2022-08-21T05:16:26;25.30;99.90
10344;DHT22;5217;43.960;10.954;2022-08-21T05:19:03;25.30;99.90
10344;DHT22;5217;43.960;10.954;2022-08-21T05:21:32;25.30;99.90
10344;DHT22;5217;43.960;10.954;2022-08-21T05:24:02;25.30;99.90
10344;DHT22;5217;43.960;10.954;2022-08-21T05:26:31;25.30;99.90
10344;DHT22;5217;43.960;10.954;2022-08-21T05:29:11;25.30;99.90
10344;DHT22;5217;43.960;10.954;2022-08-21T05:31:40;25.30;99.90
10344;DHT22;5217;43.960;10.954;2022-08-21T05:34:09;25.30;99.90
10344;DHT22;5217;43.960;10.954;2022-08-21T05:36:41;25.30;99.90
10344;DHT22;5217;43.960;10.954;2022-08-21T05:39:12;25.40;99.90
10344;DHT22;5217;43.960;10.954;2022-08-21T05:41:40;25.30;99.90
10344;DHT22;5217;43.960;10.954;2022-08-21T05:44:09;25.30;99.90
10344;DHT22;5217;43.960;10.954;2022-08-21T05:46:38;25.30;99.90
10344;DHT22;5217;43.960;10.954;2022-08-21T05:49:06;25.30;99.90
10344;DHT22;5217;43.960;10.954;2022-08-21T05:51:35;25.30;99.90
10344;DHT22;5217;43.960;10.954;2022-08-21T05:54:03;25.30;99.90
10344;DHT22;5217;43.960;10.954;2022-08-21T05:56:34;25.30;99.90
10344;DHT22;5217;43.960;10.954;2022-08-21T05:59:02;25.30;99.90
10344;DHT22;5217;43.960;10.954;2022-08-21T06:01:34;25.30;99.90
10344;DHT22;5217;43.960;10.954;2022-08-21T06:04:03;25.30;99.90
10344;DHT22;5217;43.960;10.954;2022-08-21T06:06:32;25.30;99.90
10344;DHT22;5217;43.960;10.954;2022-08-21T06:09:01;25.30;99.90
10344;DHT22;5217;43.960;10.954;2022-08-21T06:11:31;25.30;99.90
10344;DHT22;5217;43.960;10.954;2022-08-21T06:14:01;25.30;99.90
10344;DHT22;5217;43.960;10.954;2022-08-21T06:16:29;25.30;99.90
10344;DHT22;5217;43.960;10.954;2022-08-21T06:18:58;25.30;99.90
10344;DHT22;5217;43.960;10.954;2022-08-21T06:21:29;25.30;99.90
10344;DHT22;5217;43.960;10.954;2022-08-21T06:23:57;25.30;99.90
10344;DHT22;5217;43.960;10.954;2022-08-21T06:26:26;25.30;99.90
10344;DHT22;5217;43.960;10.954;2022-08-21T06:28:54;25.40;99.90
10344;DHT22;5217;43.960;10.954;2022-08-21T06:31:27;25.40;99.90
10344;DHT22;5217;43.960;10.954;2022-08-21T06:33:56;25.40;99.90
10344;DHT22;5217;43.960;10.954;2022-08-21T06:36:24;25.40;99.90
10344;DHT22;5217;43.960;10.954;2022-08-21T06:38:53;25.40;99.90
10344;DHT22;5217;43.960;10.954;2022-08-21T06:41:23;25.50;99.90
10344;DHT22;5217;43.960;10.954;2022-08-21T06:43:53;25.50;99.90
10344;DHT22;5217;43.960;10.954;2022-08-21T06:46:22;25.50;99.90
10344;DHT22;5217;43.960;10.954;2022-08-21T06:48:51;25.50;99.90
10344;DHT22;5217;43.960;10.954;2022-08-21T06:51:20;25.50;99.90
10344;DHT22;5217;43.960;10.954;2022-08-21T06:53:48;25.50;99.90
10344;DHT22;5217;43.960;10.954;2022-08-21T06:56:17;25.50;99.90
10344;DHT22;5217;43.960;10.954;2022-08-21T06:58:46;25.50;99.90
10344;DHT22;5217;43.960;10.954;2022-08-21T07:01:14;25.50;99.90
10344;DHT22;5217;43.960;10.954;2022-08-21T07:03:43;25.50;99.90
10344;DHT22;5217;43.960;10.954;2022-08-21T07:06:13;25.50;99.90
10344;DHT22;5217;43.960;10.954;2022-08-21T07:08:41;25.50;99.90
10344;DHT22;5217;43.960;10.954;2022-08-21T07:11:14;25.50;99.90
10344;DHT22;5217;43.960;10.954;2022-08-21T07:13:45;25.60;99.90
10344;DHT22;5217;43.960;10.954;2022-08-21T07:16:14;25.60;99.90
10344;DHT22;5217;43.960;10.954;2022-08-21T07:18:42;25.60;99.90
10344;DHT22;5217;43.960;10.954;2022-08-21T07:21:12;25.60;99.90
10344;DHT22;5217;43.960;10.954;2022-08-21T07:23:42;25.60;99.90
10344;DHT22;5217;43.960;10.954;2022-08-21T07:26:12;25.60;99.90
10344;DHT22;5217;43.960;10.954;2022-08-21T07:28:40;25.60;99.90
10344;DHT22;5217;43.960;10.954;2022-08-21T07:31:10;25.70;99.90
10344;DHT22;5217;43.960;10.954;2022-08-21T07:33:41;25.70;99.90
10344;DHT22;5217;43.960;10.954;2022-08-21T07:36:10;25.70;99.90
10344;DHT22;5217;43.960;10.954;2022-08-21T07:38:41;25.70;99.90
10344;DHT22;5217;43.960;10.954;2022-08-21T07:41:13;25.70;99.90
10344;DHT22;5217;43.960;10.954;2022-08-21T07:43:43;25.80;99.90
10344;DHT22;5217;43.960;10.954;2022-08-21T07:46:12;25.80;99.90
10344;DHT22;5217;43.960;10.954;2022-08-21T07:48:41;25.80;99.90
10344;DHT22;5217;43.960;10.954;2022-08-21T07:51:12;25.80;99.90
10344;DHT22;5217;43.960;10.954;2022-08-21T07:53:45;25.80;99.90
10344;DHT22;5217;43.960;10.954;2022-08-21T07:56:15;25.80;99.90
10344;DHT22;5217;43.960;10.954;2022-08-21T07:58:43;25.80;99.90
10344;DHT22;5217;43.960;10.954;2022-08-21T08:01:12;25.80;99.90
10344;DHT22;5217;43.960;10.954;2022-08-21T08:03:41;25.90;99.90
10344;DHT22;5217;43.960;10.954;2022-08-21T08:06:09;25.90;99.90
10344;DHT22;5217;43.960;10.954;2022-08-21T08:08:39;25.90;99.90
10344;DHT22;5217;43.960;10.954;2022-08-21T08:11:11;25.90;99.90
10344;DHT22;5217;43.960;10.954;2022-08-21T08:13:45;25.90;99.90
10344;DHT22;5217;43.960;10.954;2022-08-21T08:16:14;26.00;99.90
10344;DHT22;5217;43.960;10.954;2022-08-21T08:18:43;26.00;99.90
10344;DHT22;5217;43.960;10.954;2022-08-21T08:21:12;26.00;99.90
10344;DHT22;5217;43.960;10.954;2022-08-21T08:23:41;26.00;99.90
10344;DHT22;5217;43.960;10.954;2022-08-21T08:26:13;26.00;99.90
10344;DHT22;5217;43.960;10.954;2022-08-21T08:28:42;26.10;99.90
10344;DHT22;5217;43.960;10.954;2022-08-21T08:31:11;26.10;99.90
10344;DHT22;5217;43.960;10.954;2022-08-21T08:33:40;26.10;99.90
10344;DHT22;5217;43.960;10.954;2022-08-21T08:36:13;26.10;99.90
10344;DHT22;5217;43.960;10.954;2022-08-21T08:38:42;26.10;99.90
10344;DHT22;5217;43.960;10.954;2022-08-21T08:41:14;26.10;99.90
10344;DHT22;5217;43.960;10.954;2022-08-21T08:43:49;26.10;99.90
10344;DHT22;5217;43.960;10.954;2022-08-21T08:46:22;26.20;99.90
10344;DHT22;5217;43.960;10.954;2022-08-21T08:48:57;26.20;99.90
10344;DHT22;5217;43.960;10.954;2022-08-21T08:51:37;26.20;99.90
10344;DHT22;5217;43.960;10.954;2022-08-21T08:54:09;26.20;99.90
10344;DHT22;5217;43.960;10.954;2022-08-21T08:56:40;26.20;99.90
10344;DHT22;5217;43.960;10.954;2022-08-21T08:59:20;26.20;99.90
10344;DHT22;5217;43.960;10.954;2022-08-21T09:01:51;26.30;99.90
10344;DHT22;5217;43.960;10.954;2022-08-21T09:04:24;26.30;99.90
10344;DHT22;5217;43.960;10.954;2022-08-21T09:07:08;26.30;99.90
10344;DHT22;5217;43.960;10.954;2022-08-21T09:09:51;26.40;99.90
10344;DHT22;5217;43.960;10.954;2022-08-21T09:12:33;26.40;99.90
10344;DHT22;5217;43.960;10.954;2022-08-21T09:15:12;26.40;99.90
10344;DHT22;5217;43.960;10.954;2022-08-21T09:18:11;26.40;99.90
10344;DHT22;5217;43.960;10.954;2022-08-21T09:20:50;26.50;99.90
10344;DHT22;5217;43.960;10.954;2022-08-21T09:23:29;26.40;99.90
10344;DHT22;5217;43.960;10.954;2022-08-21T09:26:07;26.50;99.90
10344;DHT22;5217;43.960;10.954;2022-08-21T09:28:40;26.50;99.90
10344;DHT22;5217;43.960;10.954;2022-08-21T09:31:27;26.50;99.90
10344;DHT22;5217;43.960;10.954;2022-08-21T09:34:00;26.50;99.90
10344;DHT22;5217;43.960;10.954;2022-08-21T09:36:35;26.60;99.90
10344;DHT22;5217;43.960;10.954;2022-08-21T09:39:04;26.60;99.90
10344;DHT22;5217;43.960;10.954;2022-08-21T09:41:35;26.60;99.90
10344;DHT22;5217;43.960;10.954;2022-08-21T09:44:08;26.60;99.90
10344;DHT22;5217;43.960;10.954;2022-08-21T09:46:36;26.70;99.90
10344;DHT22;5217;43.960;10.954;2022-08-21T09:49:05;26.70;99.90
10344;DHT22;5217;43.960;10.954;2022-08-21T09:51:51;26.70;99.90
10344;DHT22;5217;43.960;10.954;2022-08-21T09:54:26;26.70;99.90
10344;DHT22;5217;43.960;10.954;2022-08-21T09:56:56;26.70;99.90
10344;DHT22;5217;43.960;10.954;2022-08-21T09:59:46;26.70;99.90
10344;DHT22;5217;43.960;10.954;2022-08-21T10:02:24;26.80;99.90
10344;DHT22;5217;43.960;10.954;2022-08-21T10:04:54;26.90;99.90
10344;DHT22;5217;43.960;10.954;2022-08-21T10:07:24;26.90;99.90
10344;DHT22;5217;43.960;10.954;2022-08-21T10:10:02;26.90;99.90
10344;DHT22;5217;43.960;10.954;2022-08-21T10:12:39;27.00;99.90
10344;DHT22;5217;43.960;10.954;2022-08-21T10:15:17;27.00;99.90
10344;DHT22;5217;43.960;10.954;2022-08-21T10:17:53;27.00;99.90
10344;DHT22;5217;43.960;10.954;2022-08-21T10:20:29;27.00;99.90
10344;DHT22;5217;43.960;10.954;2022-08-21T10:23:07;27.00;99.90
10344;DHT22;5217;43.960;10.954;2022-08-21T10:25:43;27.10;99.90
10344;DHT22;5217;43.960;10.954;2022-08-21T10:28:37;27.10;99.90
10344;DHT22;5217;43.960;10.954;2022-08-21T10:31:15;27.10;99.90
10344;DHT22;5217;43.960;10.954;2022-08-21T10:33:52;27.20;99.90
10344;DHT22;5217;43.960;10.954;2022-08-21T10:36:29;27.20;99.90
10344;DHT22;5217;43.960;10.954;2022-08-21T10:39:11;27.20;99.90
10344;DHT22;5217;43.960;10.954;2022-08-21T10:42:20;27.30;99.90
10344;DHT22;5217;43.960;10.954;2022-08-21T10:45:09;27.40;99.90
10344;DHT22;5217;43.960;10.954;2022-08-21T10:47:45;27.40;99.90
10344;DHT22;5217;43.960;10.954;2022-08-21T10:50:24;27.50;99.90
10344;DHT22;5217;43.960;10.954;2022-08-21T10:53:10;27.50;99.90
10344;DHT22;5217;43.960;10.954;2022-08-21T10:55:43;27.50;99.90
10344;DHT22;5217;43.960;10.954;2022-08-21T10:58:17;27.60;99.90
10344;DHT22;5217;43.960;10.954;2022-08-21T11:00:49;27.60;99.90
10344;DHT22;5217;43.960;10.954;2022-08-21T11:03:24;27.70;99.90
10344;DHT22;5217;43.960;10.954;2022-08-21T11:05:58;27.70;99.90
10344;DHT22;5217;43.960;10.954;2022-08-21T11:08:31;27.80;99.90
10344;DHT22;5217;43.960;10.954;2022-08-21T11:11:05;27.80;99.90
10344;DHT22;5217;43.960;10.954;2022-08-21T11:13:40;27.90;99.90
10344;DHT22;5217;43.960;10.954;2022-08-21T11:16:17;27.90;99.90
10344;DHT22;5217;43.960;10.954;2022-08-21T11:18:52;28.00;99.90
10344;DHT22;5217;43.960;10.954;2022-08-21T11:21:37;28.00;99.90
10344;DHT22;5217;43.960;10.954;2022-08-21T11:24:24;28.00;99.90
10344;DHT22;5217;43.960;10.954;2022-08-21T11:27:00;28.00;99.90
10344;DHT22;5217;43.960;10.954;2022-08-21T11:29:31;28.10;99.90
10344;DHT22;5217;43.960;10.954;2022-08-21T11:32:19;28.20;99.90
10344;DHT22;5217;43.960;10.954;2022-08-21T11:35:00;28.30;99.90
10344;DHT22;5217;43.960;10.954;2022-08-21T11:37:42;28.40;99.90
10344;DHT22;5217;43.960;10.954;2022-08-21T11:40:36;28.50;99.90
10344;DHT22;5217;43.960;10.954;2022-08-21T11:43:12;28.60;99.90
10344;DHT22;5217;43.960;10.954;2022-08-21T11:45:46;28.60;99.90
10344;DHT22;5217;43.960;10.954;2022-08-21T11:48:33;28.70;99.90
10344;DHT22;5217;43.960;10.954;2022-08-21T11:51:12;28.80;99.90
10344;DHT22;5217;43.960;10.954;2022-08-21T11:53:48;28.90;99.90
10344;DHT22;5217;43.960;10.954;2022-08-21T11:56:23;28.90;99.90
10344;DHT22;5217;43.960;10.954;2022-08-21T11:58:56;29.00;99.90
10344;DHT22;5217;43.960;10.954;2022-08-21T12:01:31;29.20;99.90
10344;DHT22;5217;43.960;10.954;2022-08-21T12:04:03;29.20;99.90
10344;DHT22;5217;43.960;10.954;2022-08-21T12:06:35;29.30;99.90
10344;DHT22;5217;43.960;10.954;2022-08-21T12:09:07;29.30;99.90
10344;DHT22;5217;43.960;10.954;2022-08-21T12:11:47;29.40;99.90
10344;DHT22;5217;43.960;10.954;2022-08-21T12:14:18;29.40;99.90
10344;DHT22;5217;43.960;10.954;2022-08-21T12:16:47;29.40;99.90
10344;DHT22;5217;43.960;10.954;2022-08-21T12:19:29;29.40;99.90
10344;DHT22;5217;43.960;10.954;2022-08-21T12:22:09;29.40;99.90
10344;DHT22;5217;43.960;10.954;2022-08-21T12:24:40;29.40;99.90
10344;DHT22;5217;43.960;10.954;2022-08-21T12:27:30;29.30;99.90
10344;DHT22;5217;43.960;10.954;2022-08-21T12:30:00;29.30;99.90
10344;DHT22;5217;43.960;10.954;2022-08-21T12:32:30;29.30;99.90
10344;DHT22;5217;43.960;10.954;2022-08-21T12:35:06;29.30;99.90
10344;DHT22;5217;43.960;10.954;2022-08-21T12:37:56;29.30;99.90
10344;DHT22;5217;43.960;10.954;2022-08-21T12:40:39;29.20;99.90
10344;DHT22;5217;43.960;10.954;2022-08-21T12:43:14;29.20;99.90
10344;DHT22;5217;43.960;10.954;2022-08-21T12:45:45;29.20;99.90
10344;DHT22;5217;43.960;10.954;2022-08-21T12:48:20;29.30;99.90
10344;DHT22;5217;43.960;10.954;2022-08-21T12:50:53;29.20;99.90
10344;DHT22;5217;43.960;10.954;2022-08-21T12:53:33;29.20;99.90
10344;DHT22;5217;43.960;10.954;2022-08-21T12:56:04;29.20;99.90
10344;DHT22;5217;43.960;10.954;2022-08-21T12:58:39;29.20;99.90
10344;DHT22;5217;43.960;10.954;2022-08-21T13:01:17;29.30;99.90
10344;DHT22;5217;43.960;10.954;2022-08-21T13:03:48;29.30;99.90
10344;DHT22;5217;43.960;10.954;2022-08-21T13:06:37;29.40;99.90
10344;DHT22;5217;43.960;10.954;2022-08-21T13:09:10;29.50;99.90
10344;DHT22;5217;43.960;10.954;2022-08-21T13:11:40;29.70;99.90
10344;DHT22;5217;43.960;10.954;2022-08-21T13:14:22;29.70;99.90
10344;DHT22;5217;43.960;10.954;2022-08-21T13:16:53;29.80;99.90
10344;DHT22;5217;43.960;10.954;2022-08-21T13:19:23;29.90;99.90
10344;DHT22;5217;43.960;10.954;2022-08-21T13:21:52;30.00;99.90
10344;DHT22;5217;43.960;10.954;2022-08-21T13:24:25;30.10;99.90
10344;DHT22;5217;43.960;10.954;2022-08-21T13:27:19;30.10;99.90
10344;DHT22;5217;43.960;10.954;2022-08-21T13:29:48;30.20;99.90
10344;DHT22;5217;43.960;10.954;2022-08-21T13:32:22;30.10;99.90
10344;DHT22;5217;43.960;10.954;2022-08-21T13:34:52;30.20;99.90
10344;DHT22;5217;43.960;10.954;2022-08-21T13:37:21;30.20;99.90
10344;DHT22;5217;43.960;10.954;2022-08-21T13:39:52;30.20;99.90
10344;DHT22;5217;43.960;10.954;2022-08-21T13:42:21;30.20;99.90
10344;DHT22;5217;43.960;10.954;2022-08-21T13:44:52;30.20;99.90
10344;DHT22;5217;43.960;10.954;2022-08-21T13:47:21;30.30;99.90
10344;DHT22;5217;43.960;10.954;2022-08-21T13:49:52;30.30;99.90
10344;DHT22;5217;43.960;10.954;2022-08-21T13:52:26;30.30;99.90
10344;DHT22;5217;43.960;10.954;2022-08-21T13:54:59;30.30;99.90
10344;DHT22;5217;43.960;10.954;2022-08-21T13:57:29;30.30;99.90
10344;DHT22;5217;43.960;10.954;2022-08-21T14:00:15;30.30;99.90
10344;DHT22;5217;43.960;10.954;2022-08-21T14:02:48;30.30;99.90
10344;DHT22;5217;43.960;10.954;2022-08-21T14:05:21;30.20;99.90
10344;DHT22;5217;43.960;10.954;2022-08-21T14:07:51;30.20;99.90
10344;DHT22;5217;43.960;10.954;2022-08-21T14:10:26;30.20;99.90
10344;DHT22;5217;43.960;10.954;2022-08-21T14:12:57;30.20;99.90
10344;DHT22;5217;43.960;10.954;2022-08-21T14:15:29;30.30;99.90
10344;DHT22;5217;43.960;10.954;2022-08-21T14:18:07;30.30;99.90
10344;DHT22;5217;43.960;10.954;2022-08-21T14:20:36;30.30;99.90
10344;DHT22;5217;43.960;10.954;2022-08-21T14:23:04;30.30;99.90
10344;DHT22;5217;43.960;10.954;2022-08-21T14:25:40;30.30;99.90
10344;DHT22;5217;43.960;10.954;2022-08-21T14:28:19;30.30;99.90
10344;DHT22;5217;43.960;10.954;2022-08-21T14:30:55;30.30;99.90
10344;DHT22;5217;43.960;10.954;2022-08-21T14:33:27;30.30;99.90
10344;DHT22;5217;43.960;10.954;2022-08-21T14:35:56;30.20;99.90
10344;DHT22;5217;43.960;10.954;2022-08-21T14:38:27;30.20;99.90
10344;DHT22;5217;43.960;10.954;2022-08-21T14:41:03;30.20;99.90
10344;DHT22;5217;43.960;10.954;2022-08-21T14:43:32;30.20;99.90
10344;DHT22;5217;43.960;10.954;2022-08-21T14:46:00;30.10;99.90
10344;DHT22;5217;43.960;10.954;2022-08-21T14:48:29;30.10;99.90
10344;DHT22;5217;43.960;10.954;2022-08-21T14:50:57;30.00;99.90
10344;DHT22;5217;43.960;10.954;2022-08-21T14:53:26;30.00;99.90
10344;DHT22;5217;43.960;10.954;2022-08-21T14:55:56;30.00;99.90
10344;DHT22;5217;43.960;10.954;2022-08-21T14:58:36;29.90;99.90
10344;DHT22;5217;43.960;10.954;2022-08-21T15:01:06;29.90;99.90
10344;DHT22;5217;43.960;10.954;2022-08-21T15:03:35;29.90;99.90
10344;DHT22;5217;43.960;10.954;2022-08-21T15:06:05;29.90;99.90
10344;DHT22;5217;43.960;10.954;2022-08-21T15:08:34;29.90;99.90
10344;DHT22;5217;43.960;10.954;2022-08-21T15:11:05;29.90;99.90
10344;DHT22;5217;43.960;10.954;2022-08-21T15:13:40;29.90;99.90
10344;DHT22;5217;43.960;10.954;2022-08-21T15:16:10;29.90;99.90
10344;DHT22;5217;43.960;10.954;2022-08-21T15:18:39;29.90;99.90
10344;DHT22;5217;43.960;10.954;2022-08-21T15:21:08;29.90;99.90
10344;DHT22;5217;43.960;10.954;2022-08-21T15:23:37;29.80;99.90
10344;DHT22;5217;43.960;10.954;2022-08-21T15:26:11;29.80;99.90
10344;DHT22;5217;43.960;10.954;2022-08-21T15:28:40;29.80;99.90
10344;DHT22;5217;43.960;10.954;2022-08-21T15:31:08;29.80;99.90
10344;DHT22;5217;43.960;10.954;2022-08-21T15:33:37;29.80;99.90
10344;DHT22;5217;43.960;10.954;2022-08-21T15:36:05;29.70;99.90
10344;DHT22;5217;43.960;10.954;2022-08-21T15:38:34;29.70;99.90
10344;DHT22;5217;43.960;10.954;2022-08-21T15:41:03;29.70;99.90
10344;DHT22;5217;43.960;10.954;2022-08-21T15:43:39;29.70;99.90
10344;DHT22;5217;43.960;10.954;2022-08-21T15:46:10;29.70;99.90
10344;DHT22;5217;43.960;10.954;2022-08-21T15:48:39;29.70;99.90
10344;DHT22;5217;43.960;10.954;2022-08-21T15:51:09;29.70;99.90
10344;DHT22;5217;43.960;10.954;2022-08-21T15:53:39;29.70;99.90
10344;DHT22;5217;43.960;10.954;2022-08-21T15:56:17;29.70;99.90
10344;DHT22;5217;43.960;10.954;2022-08-21T15:58:49;29.70;99.90
10344;DHT22;5217;43.960;10.954;2022-08-21T16:01:19;29.70;99.90